createdAt,value
2015-07-25T00:00:09.110Z,54
2015-07-25T00:00:27.548Z,53
2015-07-25T00:00:45.923Z,54
2015-07-25T00:01:04.361Z,54
2015-07-25T00:01:22.752Z,54
2015-07-25T00:01:41.270Z,53
2015-07-25T00:01:59.786Z,55
2015-07-25T00:02:18.333Z,54
2015-07-25T00:02:36.740Z,54
2015-07-25T00:02:55.193Z,54
2015-07-25T00:03:13.631Z,55
2015-07-25T00:03:32.023Z,54
2015-07-25T00:03:50.429Z,56
2015-07-25T00:04:08.148Z,55
2015-07-25T00:04:26.586Z,55
2015-07-25T00:04:45.073Z,54
2015-07-25T00:05:03.573Z,54
2015-07-25T00:05:22.151Z,55
2015-07-25T00:05:40.590Z,55
2015-07-25T00:05:59.090Z,55
2015-07-25T00:06:17.590Z,56
2015-07-25T00:06:36.029Z,56
2015-07-25T00:06:54.420Z,55
2015-07-25T00:07:12.857Z,55
2015-07-25T00:07:31.264Z,55
2015-07-25T00:07:49.094Z,56
2015-07-25T00:08:07.500Z,54
2015-07-25T00:08:25.984Z,55
2015-07-25T00:08:44.408Z,54
2015-07-25T00:09:02.768Z,54
2015-07-25T00:09:21.393Z,56
2015-07-25T00:09:39.801Z,54
2015-07-25T00:09:58.223Z,56
2015-07-25T00:10:16.613Z,56
2015-07-25T00:10:35.178Z,55
2015-07-25T00:10:53.537Z,56
2015-07-25T00:11:12.037Z,56
2015-07-25T00:11:30.600Z,55
2015-07-25T00:11:48.992Z,55
2015-07-25T00:12:07.352Z,56
2015-07-25T00:12:25.883Z,55
2015-07-25T00:12:44.260Z,56
2015-07-25T00:13:02.729Z,54
2015-07-25T00:13:21.213Z,54
2015-07-25T00:13:39.684Z,55
2015-07-25T00:13:58.059Z,55
2015-07-25T00:14:16.496Z,55
2015-07-25T00:14:35.184Z,56
2015-07-25T00:14:53.607Z,54
2015-07-25T00:15:11.982Z,55
2015-07-25T00:15:30.372Z,55
2015-07-25T00:15:49.032Z,54
2015-07-25T00:16:07.532Z,55
2015-07-25T00:16:26.078Z,54
2015-07-25T00:16:44.565Z,55
2015-07-25T00:17:03.315Z,56
2015-07-25T00:17:21.784Z,54
2015-07-25T00:17:40.252Z,55
2015-07-25T00:17:58.895Z,55
2015-07-25T00:18:17.364Z,55
2015-07-25T00:18:35.754Z,55
2015-07-25T00:18:54.224Z,55
2015-07-25T00:19:13.005Z,54
2015-07-25T00:19:31.568Z,55
2015-07-25T00:19:50.086Z,54
2015-07-25T00:20:08.696Z,55
2015-07-25T00:20:27.461Z,56
2015-07-25T00:20:45.258Z,56
2015-07-25T00:21:04.228Z,55
2015-07-25T00:21:22.822Z,54
2015-07-25T00:21:41.369Z,54
2015-07-25T00:22:00.183Z,54
2015-07-25T00:22:18.558Z,54
2015-07-25T00:22:36.996Z,55
2015-07-25T00:22:55.405Z,56
2015-07-25T00:23:13.827Z,55
2015-07-25T00:23:32.217Z,55
2015-07-25T00:23:50.624Z,56
2015-07-25T00:24:09.048Z,56
2015-07-25T00:24:27.423Z,55
2015-07-25T00:24:45.860Z,55
2015-07-25T00:25:04.456Z,55
2015-07-25T00:25:23.112Z,55
2015-07-25T00:25:41.675Z,55
2015-07-25T00:26:00.161Z,55
2015-07-25T00:26:18.614Z,55
2015-07-25T00:26:37.130Z,55
2015-07-25T00:26:55.567Z,54
2015-07-25T00:27:14.006Z,56
2015-07-25T00:27:32.365Z,56
2015-07-25T00:27:50.740Z,55
2015-07-25T00:28:09.195Z,55
2015-07-25T00:28:27.789Z,55
2015-07-25T00:28:46.148Z,56
2015-07-25T00:29:05.198Z,56
2015-07-25T00:29:23.042Z,55
2015-07-25T00:29:41.448Z,56
2015-07-25T00:30:00.214Z,56
2015-07-25T00:30:18.685Z,56
2015-07-25T00:30:37.247Z,56
2015-07-25T00:30:55.716Z,55
2015-07-25T00:31:14.187Z,55
2015-07-25T00:31:32.702Z,56
2015-07-25T00:31:51.062Z,56
2015-07-25T00:32:09.469Z,56
2015-07-25T00:32:28.031Z,56
2015-07-25T00:32:46.594Z,55
2015-07-25T00:33:05.094Z,55
2015-07-25T00:33:23.549Z,56
2015-07-25T00:33:41.940Z,55
2015-07-25T00:34:00.346Z,57
2015-07-25T00:34:18.927Z,57
2015-07-25T00:34:37.427Z,55
2015-07-25T00:34:55.818Z,57
2015-07-25T00:35:14.459Z,56
2015-07-25T00:35:32.944Z,56
2015-07-25T00:35:51.631Z,56
2015-07-25T00:36:10.100Z,55
2015-07-25T00:36:28.571Z,56
2015-07-25T00:36:46.992Z,55
2015-07-25T00:37:05.446Z,56
2015-07-25T00:37:23.916Z,57
2015-07-25T00:37:42.291Z,55
2015-07-25T00:38:01.073Z,56
2015-07-25T00:38:19.669Z,56
2015-07-25T00:38:38.232Z,55
2015-07-25T00:38:56.904Z,55
2015-07-25T00:39:15.406Z,55
2015-07-25T00:39:33.953Z,55
2015-07-25T00:39:52.359Z,54
2015-07-25T00:40:10.718Z,56
2015-07-25T00:40:29.125Z,54
2015-07-25T00:40:47.500Z,55
2015-07-25T00:41:06.157Z,54
2015-07-25T00:41:24.737Z,54
2015-07-25T00:41:43.112Z,54
2015-07-25T00:42:01.659Z,54
2015-07-25T00:42:20.020Z,56
2015-07-25T00:42:38.395Z,56
2015-07-25T00:42:56.754Z,54
2015-07-25T00:43:15.192Z,55
2015-07-25T00:43:33.553Z,56
2015-07-25T00:43:52.053Z,55
2015-07-25T00:44:10.444Z,54
2015-07-25T00:44:28.977Z,54
2015-07-25T00:44:47.352Z,54
2015-07-25T00:45:05.727Z,54
2015-07-25T00:45:24.198Z,56
2015-07-25T00:45:42.682Z,54
2015-07-25T00:46:01.104Z,56
2015-07-25T00:46:19.479Z,54
2015-07-25T00:46:37.887Z,55
2015-07-25T00:46:56.262Z,54
2015-07-25T00:47:14.684Z,55
2015-07-25T00:47:33.107Z,55
2015-07-25T00:47:51.763Z,54
2015-07-25T00:48:10.326Z,55
2015-07-25T00:48:28.063Z,55
2015-07-25T00:48:46.548Z,56
2015-07-25T00:49:05.126Z,55
2015-07-25T00:49:23.735Z,55
2015-07-25T00:49:42.222Z,56
2015-07-25T00:50:00.722Z,56
2015-07-25T00:50:19.128Z,55
2015-07-25T00:50:37.583Z,55
2015-07-25T00:50:56.067Z,56
2015-07-25T00:51:14.489Z,55
2015-07-25T00:51:32.881Z,54
2015-07-25T00:51:51.240Z,56
2015-07-25T00:52:09.631Z,55
2015-07-25T00:52:28.021Z,56
2015-07-25T00:52:46.415Z,55
2015-07-25T00:53:04.884Z,56
2015-07-25T00:53:23.368Z,54
2015-07-25T00:53:41.807Z,55
2015-07-25T00:54:00.197Z,55
2015-07-25T00:54:18.588Z,56
2015-07-25T00:54:37.059Z,55
2015-07-25T00:54:55.418Z,56
2015-07-25T00:55:13.996Z,55
2015-07-25T00:55:32.465Z,54
2015-07-25T00:55:50.905Z,55
2015-07-25T00:56:09.796Z,56
2015-07-25T00:56:28.218Z,56
2015-07-25T00:56:46.938Z,55
2015-07-25T00:57:05.360Z,55
2015-07-25T00:57:23.781Z,54
2015-07-25T00:57:42.158Z,56
2015-07-25T00:58:00.658Z,54
2015-07-25T00:58:19.127Z,55
2015-07-25T00:58:37.568Z,55
2015-07-25T00:58:55.958Z,54
2015-07-25T00:59:14.474Z,55
2015-07-25T00:59:32.880Z,55
2015-07-25T00:59:51.272Z,55
2015-07-25T01:00:09.678Z,54
2015-07-25T01:00:28.053Z,55
2015-07-25T01:00:46.508Z,55
2015-07-25T01:01:05.196Z,55
2015-07-25T01:01:23.633Z,55
2015-07-25T01:01:42.010Z,54
2015-07-25T01:02:00.479Z,54
2015-07-25T01:02:19.182Z,55
2015-07-25T01:02:37.916Z,55
2015-07-25T01:02:56.293Z,55
2015-07-25T01:03:14.825Z,54
2015-07-25T01:03:33.450Z,54
2015-07-25T01:03:51.405Z,55
2015-07-25T01:04:10.155Z,55
2015-07-25T01:04:28.592Z,55
2015-07-25T01:04:47.188Z,55
2015-07-25T01:05:05.735Z,55
2015-07-25T01:05:24.235Z,54
2015-07-25T01:05:43.001Z,54
2015-07-25T01:06:01.471Z,55
2015-07-25T01:06:20.174Z,55
2015-07-25T01:06:39.018Z,54
2015-07-25T01:06:57.630Z,54
2015-07-25T01:07:16.067Z,54
2015-07-25T01:07:34.786Z,54
2015-07-25T01:07:53.163Z,54
2015-07-25T01:08:11.678Z,55
2015-07-25T01:08:30.085Z,54
2015-07-25T01:08:48.665Z,54
2015-07-25T01:09:07.071Z,54
2015-07-25T01:09:25.680Z,54
2015-07-25T01:09:43.555Z,54
2015-07-25T01:10:01.916Z,54
2015-07-25T01:10:20.369Z,53
2015-07-25T01:10:38.728Z,54
2015-07-25T01:10:57.371Z,53
2015-07-25T01:11:15.762Z,55
2015-07-25T01:11:34.340Z,55
2015-07-25T01:11:52.905Z,53
2015-07-25T01:12:11.577Z,54
2015-07-25T01:12:29.983Z,54
2015-07-25T01:12:48.405Z,53
2015-07-25T01:13:06.985Z,53
2015-07-25T01:13:25.517Z,54
2015-07-25T01:13:44.032Z,54
2015-07-25T01:14:02.924Z,53
2015-07-25T01:14:21.299Z,53
2015-07-25T01:14:39.658Z,52
2015-07-25T01:14:58.270Z,53
2015-07-25T01:15:16.785Z,54
2015-07-25T01:15:35.176Z,53
2015-07-25T01:15:53.551Z,25
2015-07-25T01:16:12.038Z,8
2015-07-25T01:16:30.444Z,10
2015-07-25T01:16:48.851Z,11
2015-07-25T01:17:07.227Z,14
2015-07-25T01:17:25.742Z,15
2015-07-25T01:17:44.149Z,17
2015-07-25T01:18:02.807Z,13
2015-07-25T01:18:21.182Z,14
2015-07-25T01:18:39.713Z,15
2015-07-25T01:18:58.135Z,32
2015-07-25T01:19:16.497Z,19
2015-07-25T01:19:35.122Z,37
2015-07-25T01:19:53.497Z,40
2015-07-25T01:20:12.108Z,44
2015-07-25T01:20:30.498Z,45
2015-07-25T01:20:48.858Z,45
2015-07-25T01:21:07.361Z,42
2015-07-25T01:21:25.736Z,43
2015-07-25T01:21:44.126Z,47
2015-07-25T01:22:02.501Z,49
2015-07-25T01:22:20.862Z,49
2015-07-25T01:22:39.252Z,49
2015-07-25T01:22:57.643Z,48
2015-07-25T01:23:16.162Z,50
2015-07-25T01:23:34.677Z,48
2015-07-25T01:23:53.037Z,48
2015-07-25T01:24:11.506Z,49
2015-07-25T01:24:30.209Z,47
2015-07-25T01:24:48.600Z,50
2015-07-25T01:25:06.303Z,50
2015-07-25T01:25:24.680Z,47
2015-07-25T01:25:42.383Z,49
2015-07-25T01:26:00.790Z,45
2015-07-25T01:26:19.167Z,17
2015-07-25T01:26:37.526Z,38
2015-07-25T01:26:56.151Z,47
2015-07-25T01:27:14.919Z,47
2015-07-25T01:27:33.325Z,46
2015-07-25T01:27:51.872Z,48
2015-07-25T01:28:10.262Z,45
2015-07-25T01:28:28.827Z,47
2015-07-25T01:28:47.233Z,48
2015-07-25T01:29:05.842Z,49
2015-07-25T01:29:24.313Z,49
2015-07-25T01:29:42.798Z,50
2015-07-25T01:30:01.594Z,48
2015-07-25T01:30:20.081Z,50
2015-07-25T01:30:38.503Z,50
2015-07-25T01:30:56.862Z,51
2015-07-25T01:31:15.362Z,48
2015-07-25T01:31:33.848Z,49
2015-07-25T01:31:52.333Z,50
2015-07-25T01:32:10.927Z,51
2015-07-25T01:32:29.491Z,48
2015-07-25T01:32:47.882Z,51
2015-07-25T01:33:06.413Z,51
2015-07-25T01:33:25.196Z,51
2015-07-25T01:33:43.696Z,51
2015-07-25T01:34:02.149Z,51
2015-07-25T01:34:20.759Z,50
2015-07-25T01:34:39.198Z,51
2015-07-25T01:34:57.558Z,51
2015-07-25T01:35:15.917Z,49
2015-07-25T01:35:34.606Z,49
2015-07-25T01:35:53.153Z,50
2015-07-25T01:36:11.763Z,49
2015-07-25T01:36:30.421Z,48
2015-07-25T01:36:48.796Z,47
2015-07-25T01:37:07.343Z,45
2015-07-25T01:37:25.827Z,45
2015-07-25T01:37:44.344Z,44
2015-07-25T01:38:03.016Z,8
2015-07-25T01:38:22.031Z,28
2015-07-25T01:38:40.424Z,25
2015-07-25T01:38:58.799Z,33
2015-07-25T01:39:17.205Z,24
2015-07-25T01:39:35.645Z,45
2015-07-25T01:39:54.035Z,24
2015-07-25T01:40:12.442Z,44
2015-07-25T01:40:30.988Z,43
2015-07-25T01:40:49.444Z,43
2015-07-25T01:41:07.178Z,44
2015-07-25T01:41:25.537Z,40
2015-07-25T01:41:44.165Z,43
2015-07-25T01:42:02.759Z,46
2015-07-25T01:42:21.337Z,47
2015-07-25T01:42:39.323Z,47
2015-07-25T01:42:57.760Z,47
2015-07-25T01:43:16.307Z,48
2015-07-25T01:43:34.666Z,46
2015-07-25T01:43:53.107Z,46
2015-07-25T01:44:11.466Z,46
2015-07-25T01:44:30.091Z,20
2015-07-25T01:44:48.796Z,39
2015-07-25T01:45:07.218Z,45
2015-07-25T01:45:25.624Z,47
2015-07-25T01:45:44.017Z,42
2015-07-25T01:46:02.408Z,38
2015-07-25T01:46:20.783Z,18
2015-07-25T01:46:38.970Z,16
2015-07-25T01:46:57.502Z,21
2015-07-25T01:47:15.877Z,12
2015-07-25T01:47:34.409Z,13
2015-07-25T01:47:53.114Z,16
2015-07-25T01:48:11.801Z,13
2015-07-25T01:48:30.333Z,9
2015-07-25T01:48:48.726Z,12
2015-07-25T01:49:07.226Z,8
2015-07-25T01:49:25.617Z,0
2015-07-25T01:49:44.023Z,0
2015-07-25T01:50:02.416Z,0
2015-07-25T01:50:20.838Z,0
2015-07-25T01:50:39.228Z,0
2015-07-25T01:50:57.635Z,0
2015-07-25T01:51:15.870Z,0
2015-07-25T01:51:34.385Z,0
2015-07-25T01:51:52.794Z,0
2015-07-25T01:52:11.200Z,0
2015-07-25T01:52:29.872Z,0
2015-07-25T01:52:48.343Z,0
2015-07-25T01:53:06.858Z,0
2015-07-25T01:53:25.421Z,0
2015-07-25T01:53:43.155Z,0
2015-07-25T01:54:01.563Z,0
2015-07-25T01:54:20.095Z,0
2015-07-25T01:54:38.454Z,0
2015-07-25T01:54:56.909Z,0
2015-07-25T01:55:15.425Z,0
2015-07-25T01:55:33.878Z,0
2015-07-25T01:55:52.270Z,0
2015-07-25T01:56:10.645Z,0
2015-07-25T01:56:29.145Z,0
2015-07-25T01:56:47.755Z,0
2015-07-25T01:57:06.164Z,0
2015-07-25T01:57:24.523Z,0
2015-07-25T01:57:43.008Z,0
2015-07-25T01:58:01.446Z,0
2015-07-25T01:58:19.853Z,0
2015-07-25T01:58:38.228Z,0
2015-07-25T01:58:56.120Z,0
2015-07-25T01:59:13.964Z,0
2015-07-25T01:59:32.714Z,0
2015-07-25T01:59:51.495Z,0
2015-07-25T02:00:10.060Z,0
2015-07-25T02:00:28.528Z,0
2015-07-25T02:00:47.122Z,0
2015-07-25T02:01:05.827Z,0
2015-07-25T02:01:24.593Z,0
2015-07-25T02:01:43.046Z,0
2015-07-25T02:02:01.423Z,0
2015-07-25T02:02:19.939Z,0
2015-07-25T02:02:38.392Z,0
2015-07-25T02:02:56.907Z,0
2015-07-25T02:03:15.503Z,0
2015-07-25T02:03:34.206Z,0
2015-07-25T02:03:52.941Z,0
2015-07-25T02:04:11.567Z,0
2015-07-25T02:04:30.207Z,0
2015-07-25T02:04:48.848Z,0
2015-07-25T02:05:07.304Z,0
2015-07-25T02:05:25.757Z,0
2015-07-25T02:05:44.179Z,0
2015-07-25T02:06:02.632Z,0
2015-07-25T02:06:20.525Z,0
2015-07-25T02:06:39.087Z,0
2015-07-25T02:06:57.478Z,0
2015-07-25T02:07:16.230Z,0
2015-07-25T02:07:34.667Z,0
2015-07-25T02:07:53.199Z,0
2015-07-25T02:08:11.591Z,0
2015-07-25T02:08:29.951Z,0
2015-07-25T02:08:48.513Z,0
2015-07-25T02:09:07.091Z,0
2015-07-25T02:09:25.718Z,0
2015-07-25T02:09:44.093Z,0
2015-07-25T02:10:02.750Z,0
2015-07-25T02:10:21.377Z,0
2015-07-25T02:10:40.095Z,0
2015-07-25T02:10:58.830Z,0
2015-07-25T02:11:17.379Z,0
2015-07-25T02:11:35.941Z,0
2015-07-25T02:11:54.519Z,0
2015-07-25T02:12:12.894Z,0
2015-07-25T02:12:31.364Z,0
2015-07-25T02:12:50.223Z,0
2015-07-25T02:13:08.958Z,0
2015-07-25T02:13:27.679Z,0
2015-07-25T02:13:46.148Z,0
2015-07-25T02:14:05.039Z,0
2015-07-25T02:14:23.962Z,0
2015-07-25T02:14:42.509Z,0
2015-07-25T02:15:01.102Z,0
2015-07-25T02:15:19.590Z,0
2015-07-25T02:15:37.965Z,0
2015-07-25T02:15:56.699Z,0
2015-07-25T02:16:15.152Z,0
2015-07-25T02:16:33.717Z,0
2015-07-25T02:16:52.170Z,0
2015-07-25T02:17:10.795Z,0
2015-07-25T02:17:29.155Z,0
2015-07-25T02:17:47.561Z,0
2015-07-25T02:18:06.171Z,0
2015-07-25T02:18:24.595Z,0
2015-07-25T02:18:43.235Z,0
2015-07-25T02:19:01.907Z,0
2015-07-25T02:19:20.517Z,0
2015-07-25T02:19:39.175Z,0
2015-07-25T02:19:57.706Z,0
2015-07-25T02:20:16.097Z,0
2015-07-25T02:20:34.552Z,0
2015-07-25T02:20:53.005Z,0
2015-07-25T02:21:11.396Z,0
2015-07-25T02:21:30.054Z,0
2015-07-25T02:21:48.835Z,0
2015-07-25T02:22:07.366Z,0
2015-07-25T02:22:25.913Z,0
2015-07-25T02:22:44.290Z,0
2015-07-25T02:23:02.884Z,0
2015-07-25T02:23:21.415Z,0
2015-07-25T02:23:40.137Z,0
2015-07-25T02:23:58.981Z,0
2015-07-25T02:24:17.340Z,0
2015-07-25T02:24:36.216Z,0
2015-07-25T02:24:54.700Z,0
2015-07-25T02:25:13.263Z,0
2015-07-25T02:25:31.638Z,0
2015-07-25T02:25:49.999Z,0
2015-07-25T02:26:08.499Z,0
2015-07-25T02:26:27.093Z,0
2015-07-25T02:26:45.829Z,0
2015-07-25T02:27:04.251Z,0
2015-07-25T02:27:22.767Z,0
2015-07-25T02:27:41.316Z,0
2015-07-25T02:27:59.691Z,0
2015-07-25T02:28:18.066Z,0
2015-07-25T02:28:36.724Z,0
2015-07-25T02:28:55.271Z,0
2015-07-25T02:29:13.646Z,0
2015-07-25T02:29:32.083Z,0
2015-07-25T02:29:50.507Z,0
2015-07-25T02:30:09.179Z,0
2015-07-25T02:30:27.867Z,0
2015-07-25T02:30:46.244Z,0
2015-07-25T02:31:04.650Z,0
2015-07-25T02:31:22.681Z,0
2015-07-25T02:31:41.199Z,0
2015-07-25T02:31:59.886Z,0
2015-07-25T02:32:18.402Z,0
2015-07-25T02:32:36.949Z,0
2015-07-25T02:32:55.498Z,0
2015-07-25T02:33:13.326Z,0
2015-07-25T02:33:32.029Z,0
2015-07-25T02:33:50.436Z,0
2015-07-25T02:34:08.952Z,0
2015-07-25T02:34:27.374Z,0
2015-07-25T02:34:45.814Z,0
2015-07-25T02:35:04.236Z,0
2015-07-25T02:35:22.642Z,0
2015-07-25T02:35:41.033Z,0
2015-07-25T02:35:59.503Z,0
2015-07-25T02:36:18.096Z,0
2015-07-25T02:36:36.518Z,0
2015-07-25T02:36:55.068Z,0
2015-07-25T02:37:13.615Z,0
2015-07-25T02:37:32.162Z,0
2015-07-25T02:37:50.741Z,0
2015-07-25T02:38:09.491Z,0
2015-07-25T02:38:28.147Z,0
2015-07-25T02:38:46.632Z,0
2015-07-25T02:39:05.009Z,0
2015-07-25T02:39:23.571Z,0
2015-07-25T02:39:41.993Z,0
2015-07-25T02:40:00.354Z,0
2015-07-25T02:40:18.729Z,0
2015-07-25T02:40:37.167Z,1
2015-07-25T02:40:55.528Z,0
2015-07-25T02:41:14.185Z,1
2015-07-25T02:41:32.716Z,1
2015-07-25T02:41:51.263Z,1
2015-07-25T02:42:09.671Z,1
2015-07-25T02:42:28.124Z,1
2015-07-25T02:42:46.733Z,1
2015-07-25T02:43:05.376Z,1
2015-07-25T02:43:23.751Z,1
2015-07-25T02:43:42.392Z,1
2015-07-25T02:44:00.956Z,1
2015-07-25T02:44:19.503Z,1
2015-07-25T02:44:38.066Z,1
2015-07-25T02:44:56.566Z,1
2015-07-25T02:45:15.006Z,1
2015-07-25T02:45:33.506Z,1
2015-07-25T02:45:51.912Z,1
2015-07-25T02:46:10.336Z,1
2015-07-25T02:46:28.696Z,1
2015-07-25T02:46:47.071Z,1
2015-07-25T02:47:05.415Z,2
2015-07-25T02:47:23.868Z,2
2015-07-25T02:47:42.462Z,2
2015-07-25T02:48:00.822Z,2
2015-07-25T02:48:19.417Z,2
2015-07-25T02:48:38.042Z,2
2015-07-25T02:48:56.511Z,2
2015-07-25T02:49:15.311Z,2
2015-07-25T02:49:33.983Z,2
2015-07-25T02:49:52.420Z,3
2015-07-25T02:50:10.984Z,3
2015-07-25T02:50:29.406Z,3
2015-07-25T02:50:47.937Z,3
2015-07-25T02:51:06.564Z,3
2015-07-25T02:51:25.173Z,3
2015-07-25T02:51:43.611Z,4
2015-07-25T02:52:01.986Z,4
2015-07-25T02:52:20.738Z,4
2015-07-25T02:52:39.113Z,4
2015-07-25T02:52:57.613Z,4
2015-07-25T02:53:16.474Z,5
2015-07-25T02:53:34.834Z,5
2015-07-25T02:53:53.568Z,5
2015-07-25T02:54:12.179Z,5
2015-07-25T02:54:30.601Z,6
2015-07-25T02:54:49.086Z,6
2015-07-25T02:55:07.461Z,6
2015-07-25T02:55:25.884Z,7
2015-07-25T02:55:44.416Z,7
2015-07-25T02:56:02.838Z,7
2015-07-25T02:56:21.199Z,8
2015-07-25T02:56:39.621Z,8
2015-07-25T02:56:57.980Z,8
2015-07-25T02:57:16.388Z,9
2015-07-25T02:57:35.185Z,9
2015-07-25T02:57:53.560Z,9
2015-07-25T02:58:12.453Z,10
2015-07-25T02:58:30.812Z,10
2015-07-25T02:58:49.328Z,10
2015-07-25T02:59:07.687Z,11
2015-07-25T02:59:26.174Z,11
2015-07-25T02:59:44.658Z,12
2015-07-25T03:00:03.205Z,12
2015-07-25T03:00:21.613Z,13
2015-07-25T03:00:39.379Z,13
2015-07-25T03:00:57.816Z,14
2015-07-25T03:01:16.239Z,14
2015-07-25T03:01:34.645Z,15
2015-07-25T03:01:53.145Z,15
2015-07-25T03:02:11.692Z,16
2015-07-25T03:02:30.444Z,16
2015-07-25T03:02:49.101Z,17
2015-07-25T03:03:07.710Z,17
2015-07-25T03:03:26.104Z,18
2015-07-25T03:03:44.697Z,19
2015-07-25T03:04:03.088Z,19
2015-07-25T03:04:21.526Z,20
2015-07-25T03:04:39.870Z,20
2015-07-25T03:04:58.230Z,21
2015-07-25T03:05:16.605Z,22
2015-07-25T03:05:35.186Z,22
2015-07-25T03:05:53.748Z,23
2015-07-25T03:06:12.217Z,24
2015-07-25T03:06:30.610Z,24
2015-07-25T03:06:49.125Z,25
2015-07-25T03:07:07.547Z,26
2015-07-25T03:07:25.892Z,27
2015-07-25T03:07:44.282Z,28
2015-07-25T03:08:02.814Z,29
2015-07-25T03:08:21.204Z,30
2015-07-25T03:08:39.800Z,31
2015-07-25T03:08:58.175Z,31
2015-07-25T03:09:16.706Z,32
2015-07-25T03:09:35.083Z,33
2015-07-25T03:09:53.771Z,35
2015-07-25T03:10:12.146Z,36
2015-07-25T03:10:30.679Z,37
2015-07-25T03:10:49.163Z,39
2015-07-25T03:11:07.507Z,40
2015-07-25T03:11:25.882Z,42
2015-07-25T03:11:44.400Z,43
2015-07-25T03:12:02.759Z,45
2015-07-25T03:12:21.165Z,47
2015-07-25T03:12:39.684Z,49
2015-07-25T03:12:58.106Z,51
2015-07-25T03:13:16.465Z,53
2015-07-25T03:13:34.936Z,56
2015-07-25T03:13:53.311Z,58
2015-07-25T03:14:12.092Z,61
2015-07-25T03:14:30.499Z,64
2015-07-25T03:14:49.141Z,66
2015-07-25T03:15:07.532Z,69
2015-07-25T03:15:25.938Z,73
2015-07-25T03:15:44.409Z,76
2015-07-25T03:16:02.768Z,79
2015-07-25T03:16:21.128Z,82
2015-07-25T03:16:39.832Z,85
2015-07-25T03:16:58.191Z,88
2015-07-25T03:17:16.800Z,92
2015-07-25T03:17:35.175Z,95
2015-07-25T03:17:53.568Z,98
2015-07-25T03:18:12.396Z,101
2015-07-25T03:18:31.099Z,105
2015-07-25T03:18:49.461Z,108
2015-07-25T03:19:08.039Z,112
2015-07-25T03:19:26.570Z,115
2015-07-25T03:19:45.135Z,119
2015-07-25T03:20:03.510Z,122
2015-07-25T03:20:22.181Z,127
2015-07-25T03:20:40.603Z,130
2015-07-25T03:20:59.090Z,134
2015-07-25T03:21:17.683Z,139
2015-07-25T03:21:36.058Z,144
2015-07-25T03:21:54.826Z,148
2015-07-25T03:22:13.185Z,152
2015-07-25T03:22:31.654Z,157
2015-07-25T03:22:49.641Z,162
2015-07-25T03:23:08.047Z,165
2015-07-25T03:23:26.812Z,169
2015-07-25T03:23:45.281Z,173
2015-07-25T03:24:03.908Z,177
2015-07-25T03:24:22.377Z,180
2015-07-25T03:24:40.752Z,184
2015-07-25T03:24:59.253Z,188
2015-07-25T03:25:17.690Z,191
2015-07-25T03:25:36.065Z,194
2015-07-25T03:25:54.600Z,198
2015-07-25T03:26:13.193Z,201
2015-07-25T03:26:31.600Z,205
2015-07-25T03:26:50.022Z,208
2015-07-25T03:27:08.570Z,212
2015-07-25T03:27:27.133Z,215
2015-07-25T03:27:45.070Z,219
2015-07-25T03:28:03.901Z,223
2015-07-25T03:28:22.260Z,226
2015-07-25T03:28:40.697Z,230
2015-07-25T03:28:59.324Z,235
2015-07-25T03:29:17.699Z,239
2015-07-25T03:29:36.246Z,242
2015-07-25T03:29:54.746Z,247
2015-07-25T03:30:13.295Z,250
2015-07-25T03:30:31.951Z,254
2015-07-25T03:30:50.514Z,257
2015-07-25T03:31:09.032Z,260
2015-07-25T03:31:27.250Z,263
2015-07-25T03:31:45.813Z,266
2015-07-25T03:32:04.237Z,269
2015-07-25T03:32:22.752Z,272
2015-07-25T03:32:41.221Z,274
2015-07-25T03:32:59.705Z,277
2015-07-25T03:33:18.145Z,281
2015-07-25T03:33:36.692Z,284
2015-07-25T03:33:55.145Z,288
2015-07-25T03:34:13.944Z,291
2015-07-25T03:34:32.772Z,295
2015-07-25T03:34:51.334Z,298
2015-07-25T03:35:09.961Z,303
2015-07-25T03:35:28.321Z,307
2015-07-25T03:35:46.758Z,311
2015-07-25T03:36:05.338Z,315
2015-07-25T03:36:23.745Z,317
2015-07-25T03:36:42.182Z,324
2015-07-25T03:37:00.573Z,327
2015-07-25T03:37:19.418Z,331
2015-07-25T03:37:37.918Z,333
2015-07-25T03:37:56.527Z,338
2015-07-25T03:38:15.498Z,342
2015-07-25T03:38:34.123Z,346
2015-07-25T03:38:52.654Z,351
2015-07-25T03:39:11.093Z,356
2015-07-25T03:39:29.843Z,361
2015-07-25T03:39:48.250Z,367
2015-07-25T03:40:06.843Z,373
2015-07-25T03:40:25.330Z,379
2015-07-25T03:40:43.720Z,385
2015-07-25T03:41:02.158Z,390
2015-07-25T03:41:20.597Z,394
2015-07-25T03:41:39.191Z,398
2015-07-25T03:41:57.738Z,405
2015-07-25T03:42:16.428Z,411
2015-07-25T03:42:34.912Z,415
2015-07-25T03:42:53.584Z,418
2015-07-25T03:43:12.087Z,422
2015-07-25T03:43:30.712Z,426
2015-07-25T03:43:49.056Z,429
2015-07-25T03:44:07.712Z,431
2015-07-25T03:44:26.400Z,437
2015-07-25T03:44:44.869Z,442
2015-07-25T03:45:03.353Z,444
2015-07-25T03:45:22.247Z,448
2015-07-25T03:45:40.810Z,453
2015-07-25T03:45:59.247Z,459
2015-07-25T03:46:17.639Z,461
2015-07-25T03:46:36.029Z,463
2015-07-25T03:46:54.592Z,467
2015-07-25T03:47:13.014Z,469
2015-07-25T03:47:31.672Z,469
2015-07-25T03:47:50.281Z,471
2015-07-25T03:48:08.859Z,471
2015-07-25T03:48:27.377Z,472
2015-07-25T03:48:45.861Z,471
2015-07-25T03:49:04.424Z,472
2015-07-25T03:49:23.098Z,472
2015-07-25T03:49:41.535Z,473
2015-07-25T03:49:59.942Z,475
2015-07-25T03:50:18.537Z,475
2015-07-25T03:50:37.115Z,475
2015-07-25T03:50:55.490Z,476
2015-07-25T03:51:13.897Z,477
2015-07-25T03:51:32.274Z,477
2015-07-25T03:51:50.883Z,477
2015-07-25T03:52:09.336Z,478
2015-07-25T03:52:27.901Z,478
2015-07-25T03:52:46.369Z,478
2015-07-25T03:53:05.057Z,480
2015-07-25T03:53:23.559Z,480
2015-07-25T03:53:42.059Z,482
2015-07-25T03:54:00.746Z,483
2015-07-25T03:54:19.215Z,485
2015-07-25T03:54:37.592Z,487
2015-07-25T03:54:56.248Z,490
2015-07-25T03:55:15.014Z,491
2015-07-25T03:55:33.719Z,494
2015-07-25T03:55:52.266Z,497
2015-07-25T03:56:10.860Z,501
2015-07-25T03:56:29.377Z,504
2015-07-25T03:56:47.737Z,508
2015-07-25T03:57:06.174Z,512
2015-07-25T03:57:24.737Z,515
2015-07-25T03:57:43.129Z,518
2015-07-25T03:58:00.942Z,521
2015-07-25T03:58:19.301Z,524
2015-07-25T03:58:37.772Z,528
2015-07-25T03:58:56.147Z,531
2015-07-25T03:59:14.678Z,534
2015-07-25T03:59:33.226Z,538
2015-07-25T03:59:51.648Z,542
2015-07-25T04:00:10.492Z,547
2015-07-25T04:00:29.039Z,552
2015-07-25T04:00:47.604Z,556
2015-07-25T04:01:06.073Z,560
2015-07-25T04:01:24.589Z,563
2015-07-25T04:01:42.950Z,567
2015-07-25T04:02:01.309Z,570
2015-07-25T04:02:19.809Z,573
2015-07-25T04:02:38.357Z,578
2015-07-25T04:02:56.748Z,582
2015-07-25T04:03:15.138Z,584
2015-07-25T04:03:33.576Z,584
2015-07-25T04:03:52.172Z,584
2015-07-25T04:04:10.687Z,584
2015-07-25T04:04:29.312Z,584
2015-07-25T04:04:48.174Z,583
2015-07-25T04:05:06.689Z,583
2015-07-25T04:05:25.049Z,583
2015-07-25T04:05:43.552Z,583
2015-07-25T04:06:02.208Z,583
2015-07-25T04:06:20.661Z,583
2015-07-25T04:06:39.161Z,582
2015-07-25T04:06:57.584Z,582
2015-07-25T04:07:16.084Z,582
2015-07-25T04:07:34.584Z,582
2015-07-25T04:07:53.211Z,581
2015-07-25T04:08:11.586Z,581
2015-07-25T04:08:30.148Z,581
2015-07-25T04:08:48.775Z,581
2015-07-25T04:09:07.166Z,581
2015-07-25T04:09:25.650Z,580
2015-07-25T04:09:44.104Z,581
2015-07-25T04:10:02.824Z,581
2015-07-25T04:10:21.402Z,580
2015-07-25T04:10:39.996Z,580
2015-07-25T04:10:58.404Z,580
2015-07-25T04:11:16.811Z,580
2015-07-25T04:11:35.404Z,580
2015-07-25T04:11:53.922Z,581
2015-07-25T04:12:12.610Z,581
2015-07-25T04:12:31.266Z,581
2015-07-25T04:12:49.830Z,581
2015-07-25T04:13:08.471Z,580
2015-07-25T04:13:27.346Z,580
2015-07-25T04:13:45.705Z,580
2015-07-25T04:14:25.582Z,581
2015-07-25T04:14:44.035Z,581
2015-07-25T04:15:02.412Z,580
2015-07-25T04:15:20.819Z,581
2015-07-25T04:15:39.584Z,581
2015-07-25T04:15:58.180Z,581
2015-07-25T04:16:16.711Z,581
2015-07-25T04:16:35.180Z,580
2015-07-25T04:16:53.651Z,581
2015-07-25T04:17:12.151Z,580
2015-07-25T04:17:30.854Z,580
2015-07-25T04:17:49.276Z,580
2015-07-25T04:18:07.886Z,580
2015-07-25T04:18:26.699Z,580
2015-07-25T04:18:45.324Z,580
2015-07-25T04:19:03.842Z,581
2015-07-25T04:19:22.530Z,581
2015-07-25T04:19:41.030Z,580
2015-07-25T04:19:59.469Z,580
2015-07-25T04:20:18.047Z,580
2015-07-25T04:20:36.626Z,580
2015-07-25T04:20:55.219Z,580
2015-07-25T04:21:13.862Z,580
2015-07-25T04:21:32.487Z,580
2015-07-25T04:21:50.846Z,581
2015-07-25T04:22:09.426Z,580
2015-07-25T04:22:28.098Z,580
2015-07-25T04:22:46.520Z,580
2015-07-25T04:23:05.256Z,580
2015-07-25T04:23:23.646Z,580
2015-07-25T04:23:42.396Z,580
2015-07-25T04:24:00.974Z,580
2015-07-25T04:24:19.398Z,580